Time;durP1;ratioP1;P1;durP2;ratioP2;P2;SDS_P1;SDS_P2;PMS_P1;PMS_P2;Temp;Humidity;BMP_temperature;BMP_pressure;BME280_temperature;BME280_humidity;BME280_pressure;Samples;Min_cycle;Max_cycle;Signal;HPM_P1;HPM_P2
2021/11/05 00:01:17;;;;;;;6.70;5.03;;;;;;;3.47;92.68;95372.06;5091947;28;20632;-79
2021/11/05 00:03:42;;;;;;;5.33;4.83;;;;;;;3.48;92.92;95376.25;5082560;28;20211;-79
2021/11/05 00:06:07;;;;;;;6.73;5.20;;;;;;;3.48;92.65;95378.81;5071729;28;20635;-79
2021/11/05 00:08:33;;;;;;;6.53;5.10;;;;;;;3.49;92.52;95380.47;5073008;28;20177;-79
2021/11/05 00:10:58;;;;;;;5.57;4.77;;;;;;;3.47;93.16;95382.31;5072036;28;20703;-79
2021/11/05 00:13:23;;;;;;;5.37;4.87;;;;;;;3.48;93.02;95375.44;5073022;28;20641;-80
2021/11/05 00:15:49;;;;;;;5.97;4.30;;;;;;;3.50;93.31;95386.41;5079105;28;20211;-79
2021/11/05 00:18:14;;;;;;;6.80;4.93;;;;;;;3.46;93.29;95385.00;5089445;28;20200;-79
2021/11/05 00:20:40;;;;;;;7.00;6.20;;;;;;;3.47;93.20;95384.06;5093141;28;20579;-79
2021/11/05 00:23:05;;;;;;;6.40;5.27;;;;;;;3.48;93.20;95385.72;5092065;28;20668;-79
2021/11/05 00:25:30;;;;;;;6.17;5.20;;;;;;;3.48;93.58;95385.72;5090960;28;20263;-79
2021/11/05 00:27:56;;;;;;;7.87;5.63;;;;;;;3.45;93.68;95378.22;5092057;28;20172;-79
2021/11/05 00:30:21;;;;;;;8.97;6.50;;;;;;;3.43;93.90;95386.00;5075438;28;20252;-79
2021/11/05 00:32:47;;;;;;;12.20;9.03;;;;;;;3.41;93.48;95381.00;5091006;28;20192;-79
2021/11/05 00:35:14;;;;;;;12.17;9.37;;;;;;;3.45;93.09;95393.63;5079860;28;20216;-79
2021/11/05 00:37:40;;;;;;;7.80;6.50;;;;;;;3.43;93.28;95388.59;5080616;28;20724;-80
2021/11/05 00:40:06;;;;;;;7.67;5.60;;;;;;;3.45;93.38;95397.03;5054569;28;20284;-79
2021/11/05 00:42:31;;;;;;;5.00;4.60;;;;;;;3.47;93.10;95392.59;5071071;28;20256;-79
2021/11/05 00:44:57;;;;;;;3.93;3.60;;;;;;;3.42;92.73;95386.94;5071584;28;20177;-79
2021/11/05 00:47:22;;;;;;;4.93;3.17;;;;;;;3.45;93.04;95394.44;5071065;28;20187;-79
2021/11/05 00:49:47;;;;;;;3.20;2.90;;;;;;;3.52;92.53;95398.19;5072591;28;20236;-79
2021/11/05 00:52:13;;;;;;;4.60;3.07;;;;;;;3.47;92.60;95397.72;5071037;28;20214;-79
2021/11/05 00:54:38;;;;;;;3.73;3.40;;;;;;;3.52;92.89;95405.91;5053887;28;20201;-79
2021/11/05 00:57:04;;;;;;;3.70;2.87;;;;;;;3.57;92.32;95403.03;5071472;28;20188;-79
2021/11/05 00:59:29;;;;;;;4.50;3.73;;;;;;;3.54;92.44;95404.06;5071316;28;20231;-79
2021/11/05 01:01:54;;;;;;;3.43;3.17;;;;;;;3.51;93.12;95403.44;5054516;28;20250;-79
2021/11/05 01:04:20;;;;;;;4.50;3.47;;;;;;;3.47;92.87;95412.31;5063480;28;20187;-78
2021/11/05 01:06:45;;;;;;;3.67;3.03;;;;;;;3.53;93.09;95407.53;5077900;28;20211;-79
2021/11/05 01:09:10;;;;;;;3.47;3.17;;;;;;;3.53;92.94;95417.00;5071175;28;20670;-79
2021/11/05 01:11:36;;;;;;;4.47;4.07;;;;;;;3.52;93.24;95403.34;5072630;28;20182;-79
2021/11/05 01:14:02;;;;;;;3.20;2.90;;;;;;;3.47;93.19;95407.19;5053662;28;20181;-79
2021/11/05 01:16:27;;;;;;;3.43;3.10;;;;;;;3.44;92.77;95400.47;5071526;28;20207;-78
2021/11/05 01:18:52;;;;;;;2.90;2.70;;;;;;;3.44;92.24;95408.19;5054002;28;20179;-79
2021/11/05 01:21:18;;;;;;;2.87;2.67;;;;;;;3.45;91.53;95417.56;5054565;28;20250;-79
2021/11/05 01:23:43;;;;;;;3.07;2.50;;;;;;;3.40;91.23;95412.72;5070504;28;20177;-79
2021/11/05 01:26:08;;;;;;;3.03;2.70;;;;;;;3.45;91.76;95422.69;5054216;28;20356;-79
2021/11/05 01:28:34;;;;;;;3.07;2.67;;;;;;;3.44;91.82;95415.88;5054332;28;20184;-80
2021/11/05 01:30:59;;;;;;;4.07;3.20;;;;;;;3.47;92.20;95422.56;5053396;28;20704;-80
2021/11/05 01:33:25;;;;;;;3.83;3.40;;;;;;;3.50;92.15;95422.34;5085628;28;20183;-79
2021/11/05 01:35:51;;;;;;;3.67;3.13;;;;;;;3.47;92.23;95420.84;5065485;28;20201;-78
2021/11/05 01:38:17;;;;;;;4.33;3.93;;;;;;;3.47;92.98;95425.16;5073076;28;20183;-79
2021/11/05 01:40:43;;;;;;;3.63;3.33;;;;;;;3.49;92.58;95426.66;5070846;28;20258;-79
2021/11/05 01:43:09;;;;;;;5.20;3.20;;;;;;;3.49;93.11;95426.66;5070855;28;20177;-79
2021/11/05 01:45:34;;;;;;;3.67;3.10;;;;;;;3.53;93.37;95422.13;5069974;28;20635;-79
2021/11/05 01:48:00;;;;;;;4.17;3.77;;;;;;;3.48;93.47;95422.47;5072824;28;20212;-79
2021/11/05 01:50:27;;;;;;;4.93;4.30;;;;;;;3.49;93.26;95428.41;5073889;28;20215;-79
2021/11/05 01:52:52;;;;;;;3.53;3.23;;;;;;;3.54;93.33;95416.91;5090978;28;20200;-79
2021/11/05 01:55:17;;;;;;;4.63;3.43;;;;;;;3.52;93.48;95412.78;5073285;28;20235;-80
2021/11/05 01:57:43;;;;;;;3.10;2.90;;;;;;;3.55;93.22;95421.13;5075445;28;20213;-79
2021/11/05 02:00:10;;;;;;;4.20;3.53;;;;;;;3.55;92.98;95426.25;5094802;28;20547;-79
2021/11/05 02:02:36;;;;;;;5.60;3.20;;;;;;;3.55;93.02;95420.28;5076845;28;20226;-80
2021/11/05 02:05:01;;;;;;;3.50;3.20;;;;;;;3.50;93.78;95428.31;5084617;28;20180;-79
2021/11/05 02:07:28;;;;;;;5.23;3.20;;;;;;;3.49;93.66;95425.84;5075259;28;20177;-79
2021/11/05 02:09:56;;;;;;;3.43;3.13;;;;;;;3.58;92.79;95433.72;5074112;28;20198;-79
2021/11/05 02:12:21;;;;;;;4.40;3.03;;;;;;;3.53;93.40;95433.22;5074348;28;20191;-79
2021/11/05 02:14:46;;;;;;;4.80;3.47;;;;;;;3.55;93.21;95438.28;5074959;28;20208;-79
2021/11/05 02:17:12;;;;;;;3.87;3.47;;;;;;;3.50;93.06;95437.75;5073977;28;20184;-79
2021/11/05 02:19:38;;;;;;;3.83;3.53;;;;;;;3.49;93.63;95446.38;5057547;28;20204;-79
2021/11/05 02:22:04;;;;;;;3.60;3.30;;;;;;;3.46;94.00;95450.00;5074101;28;20188;-80
2021/11/05 02:24:30;;;;;;;4.10;3.80;;;;;;;3.48;93.68;95442.19;5073483;28;20183;-79
2021/11/05 02:26:56;;;;;;;3.73;3.40;;;;;;;3.46;93.59;95441.47;5074108;28;20662;-79
2021/11/05 02:29:22;;;;;;;3.87;3.10;;;;;;;3.44;93.99;95441.56;5073781;28;20682;-79
2021/11/05 02:31:48;;;;;;;3.03;2.57;;;;;;;3.44;93.70;95449.25;5074089;28;20258;-79
2021/11/05 02:34:13;;;;;;;4.47;2.83;;;;;;;3.47;93.33;95443.13;5074501;28;20201;-79
2021/11/05 02:36:39;;;;;;;4.17;3.03;;;;;;;3.40;93.31;95447.84;5073756;28;20287;-79
2021/11/05 02:39:07;;;;;;;2.33;2.13;;;;;;;3.47;93.26;95449.06;5073775;28;20254;-79
2021/11/05 02:41:34;;;;;;;2.67;2.30;;;;;;;3.42;93.14;95457.06;5057296;28;20280;-79
2021/11/05 02:43:59;;;;;;;2.63;2.37;;;;;;;3.40;93.09;95455.56;5072960;28;20238;-79
2021/11/05 02:46:25;;;;;;;6.57;2.50;;;;;;;3.40;92.78;95458.94;5073496;28;20636;-80
2021/11/05 02:48:50;;;;;;;2.90;2.37;;;;;;;3.44;93.27;95466.41;5073090;28;20187;-79
2021/11/05 02:51:15;;;;;;;2.40;2.20;;;;;;;3.36;92.98;95466.97;5073178;28;20175;-79
2021/11/05 02:53:41;;;;;;;2.30;2.10;;;;;;;3.38;92.90;95465.94;5072774;28;20212;-79
2021/11/05 02:56:06;;;;;;;2.20;2.00;;;;;;;3.42;92.60;95464.78;5073305;28;20200;-79
2021/11/05 02:58:32;;;;;;;2.10;2.00;;;;;;;3.37;92.55;95473.75;5073102;28;20188;-79
2021/11/05 03:00:59;;;;;;;1.80;1.70;;;;;;;3.37;92.25;95466.84;5073504;28;20197;-79
2021/11/05 03:03:25;;;;;;;2.17;1.73;;;;;;;3.41;92.42;95473.41;5077780;28;20177;-79
2021/11/05 03:05:50;;;;;;;1.60;1.50;;;;;;;3.37;92.50;95478.88;5066490;28;20201;-79
2021/11/05 03:08:15;;;;;;;1.57;1.47;;;;;;;3.43;91.68;95478.44;5072928;28;20186;-79
2021/11/05 03:10:41;;;;;;;1.60;1.50;;;;;;;3.40;91.63;95478.66;5073272;28;20524;-79
2021/11/05 03:13:06;;;;;;;1.83;1.27;;;;;;;3.38;91.23;95490.78;5056241;28;20183;-79
2021/11/05 03:15:31;;;;;;;1.30;1.20;;;;;;;3.42;91.31;95487.88;5072367;28;20208;-79
2021/11/05 03:17:59;;;;;;;1.57;1.10;;;;;;;3.38;91.76;95483.06;5073072;28;20180;-79
2021/11/05 03:20:25;;;;;;;1.37;1.20;;;;;;;3.40;91.66;95484.59;5056541;28;20292;-79
2021/11/05 03:22:50;;;;;;;1.53;1.20;;;;;;;3.43;91.82;95491.28;5074437;28;20206;-79
2021/11/05 03:25:16;;;;;;;1.43;1.20;;;;;;;3.41;91.89;95499.06;5072132;28;20674;-79
2021/11/05 03:27:42;;;;;;;1.80;1.03;;;;;;;3.37;91.98;95505.38;5072835;28;20181;-80
2021/11/05 03:30:09;;;;;;;3.53;1.30;;;;;;;3.36;91.60;95508.03;5074179;28;20189;-79
2021/11/05 03:32:35;;;;;;;1.10;1.00;;;;;;;3.40;91.81;95506.88;5072591;28;20223;-79
2021/11/05 03:35:01;;;;;;;1.30;1.20;;;;;;;3.42;91.87;95510.16;5079784;28;20199;-79
2021/11/05 03:37:26;;;;;;;1.17;1.07;;;;;;;3.43;91.80;95511.81;5093322;28;20243;-79
2021/11/05 03:39:51;;;;;;;0.80;0.80;;;;;;;3.36;91.33;95508.03;5092663;28;20198;-79
2021/11/05 03:42:17;;;;;;;1.20;1.10;;;;;;;3.39;91.36;95520.66;5075906;28;20184;-79
2021/11/05 03:44:42;;;;;;;1.00;0.90;;;;;;;3.42;91.34;95520.44;5075550;28;20171;-79
2021/11/05 03:47:08;;;;;;;2.07;1.23;;;;;;;3.44;91.50;95518.56;5092901;28;20173;-79
2021/11/05 03:49:33;;;;;;;1.07;0.97;;;;;;;3.41;91.70;95521.38;5092569;28;20229;-79
2021/11/05 03:51:59;;;;;;;0.80;0.80;;;;;;;3.41;91.75;95521.38;5093168;28;20300;-79
2021/11/05 03:54:24;;;;;;;0.90;0.90;;;;;;;3.39;92.01;95528.34;5092077;28;20661;-80
2021/11/05 03:56:50;;;;;;;1.10;1.00;;;;;;;3.47;91.70;95531.22;5075902;28;20194;-78
2021/11/05 03:59:16;;;;;;;1.10;1.00;;;;;;;3.47;91.70;95538.94;5076209;28;20200;-79
2021/11/05 04:01:42;;;;;;;1.73;1.00;;;;;;;3.46;91.76;95542.41;5076710;28;20235;-79
2021/11/05 04:04:07;;;;;;;1.00;0.90;;;;;;;3.40;91.81;95547.97;5081851;28;20213;-80
2021/11/05 04:06:33;;;;;;;1.67;0.80;;;;;;;3.44;91.65;95549.38;5085212;28;20182;-79
2021/11/05 04:08:58;;;;;;;0.80;0.80;;;;;;;3.42;91.73;95553.81;5092586;28;20199;-79
2021/11/05 04:11:24;;;;;;;1.33;1.00;;;;;;;3.43;92.13;95552.88;5093930;28;20176;-79
2021/11/05 04:13:50;;;;;;;1.03;0.80;;;;;;;3.46;92.32;95559.56;5093053;28;20648;-79
2021/11/05 04:16:15;;;;;;;1.10;1.00;;;;;;;3.46;92.26;95565.53;5093349;28;20203;-80
2021/11/05 04:18:41;;;;;;;1.47;1.03;;;;;;;3.46;92.39;95565.53;5093700;28;20652;-79
2021/11/05 04:21:06;;;;;;;1.20;1.10;;;;;;;3.47;92.64;95572.31;5091907;28;20222;-79
2021/11/05 04:23:31;;;;;;;1.97;0.97;;;;;;;3.49;92.60;95574.75;5091402;28;20179;-79
2021/11/05 04:25:57;;;;;;;1.00;0.90;;;;;;;3.47;92.65;95574.06;5075207;28;20220;-79
2021/11/05 04:28:22;;;;;;;1.00;0.90;;;;;;;3.46;92.81;95575.78;5092322;28;20255;-79
2021/11/05 04:30:48;;;;;;;1.27;0.93;;;;;;;3.50;92.73;95582.34;5091951;28;20679;-80
2021/11/05 04:33:14;;;;;;;1.07;0.90;;;;;;;3.48;93.04;95583.38;5085254;28;20545;-80
2021/11/05 04:35:39;;;;;;;0.70;0.70;;;;;;;3.48;93.41;95586.78;5084028;28;20557;-78
2021/11/05 04:38:06;;;;;;;0.80;0.80;;;;;;;3.48;93.29;95578.25;5092020;28;20176;-79
2021/11/05 04:40:33;;;;;;;1.10;0.90;;;;;;;3.50;93.09;95581.53;5074760;28;20200;-79
2021/11/05 04:42:58;;;;;;;2.63;1.17;;;;;;;3.47;93.22;95585.13;5092057;28;20183;-79
2021/11/05 04:45:23;;;;;;;2.00;1.07;;;;;;;3.51;93.46;95585.75;5074381;28;20183;-80
2021/11/05 04:47:49;;;;;;;1.10;1.00;;;;;;;3.55;93.33;95587.19;5092846;28;20176;-79
2021/11/05 04:50:15;;;;;;;0.90;0.70;;;;;;;3.53;93.49;95589.84;5074731;28;20197;-79
2021/11/05 04:52:47;;;;;;;0.80;0.80;;;;;;;3.52;93.71;95597.66;5092007;28;20590;-79
2021/11/05 04:55:12;;;;;;;2.20;0.80;;;;;;;3.52;93.57;95590.75;5090932;28;21004;-78
2021/11/05 04:57:38;;;;;;;0.60;0.60;;;;;;;3.53;93.49;95592.41;5091636;28;20172;-78
2021/11/05 05:00:05;;;;;;;1.37;0.83;;;;;;;3.55;93.70;95598.28;5091413;28;20228;-79
2021/11/05 05:02:30;;;;;;;2.83;1.10;;;;;;;3.56;93.42;95602.50;5073753;28;20638;-80
2021/11/05 05:04:56;;;;;;;1.50;1.00;;;;;;;3.59;93.46;95602.28;5060157;28;20265;-79
2021/11/05 05:07:22;;;;;;;1.20;1.10;;;;;;;3.64;93.19;95609.69;5071393;28;20655;-79
2021/11/05 05:09:47;;;;;;;1.23;0.90;;;;;;;3.62;93.31;95612.34;5071009;28;20197;-78
2021/11/05 05:12:12;;;;;;;1.30;0.97;;;;;;;3.59;93.23;95615.09;5071678;28;20184;-79
2021/11/05 05:14:39;;;;;;;1.23;0.90;;;;;;;3.60;93.46;95618.50;5070428;28;20599;-79
2021/11/05 05:17:05;;;;;;;2.97;1.03;;;;;;;3.54;93.61;95614.63;5054454;28;20663;-79
2021/11/05 05:19:31;;;;;;;1.97;0.93;;;;;;;3.58;93.06;95616.03;5072407;28;20215;-79
2021/11/05 05:21:56;;;;;;;1.07;0.97;;;;;;;3.55;93.29;95613.69;5071234;28;20267;-79
2021/11/05 05:24:21;;;;;;;1.07;0.93;;;;;;;3.65;93.10;95621.59;5070131;28;20631;-79
2021/11/05 05:26:46;;;;;;;1.13;0.70;;;;;;;3.70;92.66;95622.91;5072040;28;20582;-79
2021/11/05 05:29:13;;;;;;;1.37;0.80;;;;;;;3.69;92.83;95628.16;5070744;28;20196;-79
2021/11/05 05:31:38;;;;;;;1.27;0.97;;;;;;;3.67;93.00;95630.81;5071074;28;20176;-79
2021/11/05 05:34:04;;;;;;;1.03;1.03;;;;;;;3.64;93.42;95633.59;5077783;28;20588;-79
2021/11/05 05:36:29;;;;;;;2.00;1.10;;;;;;;3.68;93.49;95636.78;5083470;28;20271;-80
2021/11/05 05:38:54;;;;;;;1.47;1.37;;;;;;;3.70;93.42;95635.75;5057395;28;20290;-79
2021/11/05 05:41:20;;;;;;;1.20;1.10;;;;;;;3.77;93.03;95645.63;5074933;28;20193;-79
2021/11/05 05:43:45;;;;;;;1.00;0.90;;;;;;;3.72;93.19;95642.56;5074595;28;20428;-79
2021/11/05 05:46:11;;;;;;;1.17;1.07;;;;;;;3.80;93.15;95645.41;5076317;28;20172;-79
2021/11/05 05:48:36;;;;;;;0.90;0.90;;;;;;;3.83;92.85;95650.34;5076090;28;20172;-79
2021/11/05 05:51:02;;;;;;;0.83;0.80;;;;;;;3.82;93.31;95653.84;5078753;28;20181;-79
2021/11/05 05:53:27;;;;;;;1.97;1.00;;;;;;;3.81;93.43;95649.63;5072578;28;20202;-80
2021/11/05 05:55:52;;;;;;;1.93;1.20;;;;;;;3.83;93.45;95664.00;5077535;28;20196;-80
2021/11/05 05:58:18;;;;;;;0.93;0.90;;;;;;;3.83;93.16;95669.16;5093005;28;20172;-82
2021/11/05 06:00:43;;;;;;;1.63;1.03;;;;;;;3.86;93.31;95663.78;5077095;28;20192;-80
2021/11/05 06:03:09;;;;;;;1.10;1.00;;;;;;;3.82;93.77;95664.94;5093116;28;20179;-80
2021/11/05 06:05:35;;;;;;;1.47;1.00;;;;;;;3.85;93.41;95669.03;5072333;28;20736;-80
2021/11/05 06:08:00;;;;;;;1.17;1.07;;;;;;;3.82;93.72;95675.22;5056398;28;20179;-81
2021/11/05 06:10:25;;;;;;;1.23;1.00;;;;;;;3.86;93.72;95679.22;5073809;28;20721;-80
2021/11/05 06:12:51;;;;;;;1.13;1.03;;;;;;;3.88;93.88;95686.81;5055482;28;20522;-80
2021/11/05 06:15:16;;;;;;;1.17;1.07;;;;;;;3.88;93.84;95689.38;5074331;28;20197;-80
2021/11/05 06:17:41;;;;;;;2.10;1.13;;;;;;;3.87;93.68;95688.56;5073661;28;20183;-80
2021/11/05 06:20:07;;;;;;;2.43;1.23;;;;;;;3.90;94.03;95690.94;5056933;28;20553;-80
2021/11/05 06:22:32;;;;;;;1.60;1.50;;;;;;;3.86;94.29;95698.94;5074248;28;20200;-80
2021/11/05 06:24:59;;;;;;;1.20;1.10;;;;;;;3.87;94.31;95698.00;5055330;28;20185;-80
2021/11/05 06:27:25;;;;;;;1.80;1.20;;;;;;;3.92;93.87;95701.94;5072464;28;20180;-80
2021/11/05 06:29:50;;;;;;;1.97;1.20;;;;;;;3.89;94.40;95712.41;5056285;28;20231;-80
2021/11/05 06:32:16;;;;;;;1.93;1.37;;;;;;;3.89;94.61;95721.88;5056042;28;20197;-80
2021/11/05 06:34:41;;;;;;;1.40;1.23;;;;;;;3.90;94.84;95716.63;5075188;28;20738;-78
2021/11/05 06:37:07;;;;;;;1.53;1.43;;;;;;;3.94;94.45;95727.50;5071606;28;20207;-79
2021/11/05 06:39:32;;;;;;;3.20;1.47;;;;;;;3.95;94.46;95729.16;5092939;28;20188;-79
2021/11/05 06:41:58;;;;;;;2.30;1.67;;;;;;;3.98;94.69;95736.66;5074952;28;20257;-79
2021/11/05 06:44:24;;;;;;;1.10;1.00;;;;;;;4.03;94.26;95742.31;5066157;28;20169;-79
2021/11/05 06:46:49;;;;;;;1.30;1.20;;;;;;;4.04;94.26;95743.94;5075089;28;20257;-79
2021/11/05 06:49:15;;;;;;;0.90;0.80;;;;;;;4.04;93.97;95746.53;5075806;28;20249;-79
2021/11/05 06:51:40;;;;;;;5.13;2.10;;;;;;;4.04;94.08;95750.84;5091658;28;20177;-79
2021/11/05 06:54:06;;;;;;;2.73;1.87;;;;;;;4.02;94.32;95762.97;5091360;28;20181;-79
2021/11/05 06:56:31;;;;;;;1.63;1.50;;;;;;;4.05;94.29;95770.47;5092160;28;20259;-79
2021/11/05 06:58:58;;;;;;;1.50;1.40;;;;;;;4.04;94.32;95767.06;5092108;28;20215;-79
2021/11/05 07:01:24;;;;;;;1.60;1.33;;;;;;;4.05;94.22;95776.44;5075612;28;20266;-80
2021/11/05 07:03:50;;;;;;;1.60;1.50;;;;;;;4.07;94.32;95784.06;5072416;28;20719;-79
2021/11/05 07:06:16;;;;;;;1.40;1.10;;;;;;;4.09;94.27;95788.16;5071999;28;20287;-79
2021/11/05 07:08:41;;;;;;;0.80;0.80;;;;;;;4.13;94.09;95792.16;5055278;28;20271;-80
2021/11/05 07:11:06;;;;;;;0.80;0.80;;;;;;;4.22;93.52;95801.00;5055160;28;20174;-79
2021/11/05 07:13:32;;;;;;;1.10;1.00;;;;;;;4.23;93.38;95798.31;5057426;28;20180;-79
2021/11/05 07:15:57;;;;;;;1.27;1.17;;;;;;;4.28;93.51;95805.75;5071497;28;20201;-79
2021/11/05 07:18:23;;;;;;;1.20;1.10;;;;;;;4.28;93.22;95804.94;5072125;28;20173;-79
2021/11/05 07:20:49;;;;;;;2.03;1.00;;;;;;;4.30;93.40;95819.31;5055329;28;20203;-79
2021/11/05 07:23:14;;;;;;;1.43;1.17;;;;;;;4.32;93.07;95825.16;5088388;28;20169;-79
2021/11/05 07:25:40;;;;;;;5.90;4.78;;;;;;;4.37;93.21;95830.84;5035738;28;1047247;-79
2021/11/05 07:28:05;;;;;;;4.47;3.70;;;;;;;4.37;93.03;95835.97;5056157;28;20199;-79
2021/11/05 07:30:31;;;;;;;7.87;5.33;;;;;;;4.42;93.02;95840.84;5056210;28;20203;-79
2021/11/05 07:32:57;;;;;;;2.33;1.97;;;;;;;4.40;93.18;95838.34;5056069;28;20264;-79
2021/11/05 07:35:22;;;;;;;3.90;1.57;;;;;;;4.41;92.58;95842.56;5074752;28;20204;-79
2021/11/05 07:37:48;;;;;;;3.33;1.70;;;;;;;4.43;92.80;95850.19;5079661;28;20949;-79
2021/11/05 07:40:14;;;;;;;1.30;1.20;;;;;;;4.43;92.97;95858.72;5074555;28;20193;-81
2021/11/05 07:42:41;;;;;;;1.10;1.00;;;;;;;4.47;92.57;95861.91;5074167;28;20566;-81
2021/11/05 07:45:08;;;;;;;0.80;0.80;;;;;;;4.47;92.50;95874.75;5075398;28;20176;-80
2021/11/05 07:47:34;;;;;;;1.13;1.03;;;;;;;4.44;92.53;95878.38;5072936;28;20238;-80
2021/11/05 07:50:00;;;;;;;2.27;1.60;;;;;;;4.52;92.56;95881.25;5057326;28;20679;-85
2021/11/05 07:52:26;;;;;;;1.47;1.37;;;;;;;4.55;92.54;95893.91;5055675;28;20263;-79
2021/11/05 07:54:51;;;;;;;3.43;1.53;;;;;;;4.63;92.27;95895.97;5072184;28;20254;-79
2021/11/05 07:57:17;;;;;;;2.20;1.70;;;;;;;4.62;92.45;95898.66;5073838;28;20636;-79
2021/11/05 07:59:42;;;;;;;1.90;1.60;;;;;;;4.59;92.81;95904.78;5055924;28;20308;-79
2021/11/05 08:02:08;;;;;;;1.63;1.20;;;;;;;4.60;92.62;95909.03;5056643;28;20180;-79
2021/11/05 08:04:33;;;;;;;1.20;1.10;;;;;;;4.60;92.56;95916.75;5054893;28;20193;-79
2021/11/05 08:06:58;;;;;;;1.30;1.17;;;;;;;4.59;92.58;95917.66;5068237;28;20184;-80
2021/11/05 08:09:24;;;;;;;3.13;1.40;;;;;;;4.62;92.79;95927.75;5092038;28;20203;-79
2021/11/05 08:11:49;;;;;;;2.67;1.50;;;;;;;4.58;92.42;95931.44;5092406;28;20185;-79
2021/11/05 08:14:14;;;;;;;1.50;1.40;;;;;;;4.57;92.67;95934.94;5072176;28;20181;-79
2021/11/05 08:16:40;;;;;;;2.07;1.50;;;;;;;4.58;93.12;95938.34;5064741;28;20641;-79
2021/11/05 08:19:05;;;;;;;2.00;1.90;;;;;;;4.59;93.22;95945.13;5072288;28;20203;-80
2021/11/05 08:21:31;;;;;;;4.10;2.90;;;;;;;4.51;93.89;95950.81;5055124;28;20228;-81
2021/11/05 08:23:56;;;;;;;5.90;2.77;;;;;;;4.50;94.41;95954.28;5072245;28;20179;-79
2021/11/05 08:26:22;;;;;;;5.80;3.60;;;;;;;4.52;94.41;95957.59;5071889;28;20172;-80
2021/11/05 08:28:47;;;;;;;5.73;3.50;;;;;;;4.53;94.82;95961.81;5073509;28;20165;-79
2021/11/05 08:31:15;;;;;;;5.53;3.60;;;;;;;4.57;95.13;95967.56;5071819;28;20172;-80
2021/11/05 08:33:41;;;;;;;6.20;4.10;;;;;;;4.61;94.78;95967.28;5054674;28;20187;-79
2021/11/05 08:36:07;;;;;;;3.43;2.97;;;;;;;4.72;94.96;95975.09;5074262;28;20208;-79
2021/11/05 08:38:33;;;;;;;2.70;2.10;;;;;;;4.73;94.61;95974.16;5071206;28;20617;-81
2021/11/05 08:40:59;;;;;;;2.20;2.00;;;;;;;4.74;95.03;95973.25;5073277;28;20207;-79
2021/11/05 08:43:30;;;;;;;2.10;1.90;;;;;;;4.78;95.08;95977.28;5055509;28;20187;-81
2021/11/05 08:45:55;;;;;;;2.33;1.80;;;;;;;4.93;94.84;95977.16;5071423;28;20169;-79
2021/11/05 08:48:21;;;;;;;1.90;1.70;;;;;;;5.06;94.63;95978.81;5055028;28;20169;-78
2021/11/05 08:50:47;;;;;;;2.43;1.70;;;;;;;5.22;94.30;95978.63;5054396;28;20711;-79
2021/11/05 08:53:13;;;;;;;2.27;2.00;;;;;;;5.36;93.54;95982.81;5071520;28;20235;-79
2021/11/05 08:55:39;;;;;;;1.70;1.60;;;;;;;5.53;93.04;95981.66;5066884;28;20760;-78
2021/11/05 08:58:05;;;;;;;1.67;1.53;;;;;;;5.69;92.62;95977.91;5087567;28;20185;-80
2021/11/05 09:00:33;;;;;;;2.40;1.77;;;;;;;5.60;91.75;95973.41;5070880;28;20197;-79
2021/11/05 09:02:59;;;;;;;1.97;1.63;;;;;;;5.85;91.98;95982.81;5090339;28;20648;-79
2021/11/05 09:05:24;;;;;;;1.80;1.70;;;;;;;6.02;91.05;95991.16;5086421;28;20194;-78
2021/11/05 09:07:49;;;;;;;1.70;1.60;;;;;;;6.03;90.03;95997.94;5078834;28;20197;-80
2021/11/05 09:10:15;;;;;;;1.70;1.47;;;;;;;6.06;90.00;96000.28;5052416;28;20205;-80
2021/11/05 09:12:41;;;;;;;1.53;1.20;;;;;;;6.21;90.17;96007.78;5071011;28;20169;-80
2021/11/05 09:15:10;;;;;;;1.50;1.40;;;;;;;6.20;89.21;96011.28;5058606;28;20209;-77
2021/11/05 09:17:38;;;;;;;1.70;1.20;;;;;;;6.29;89.44;96014.97;5070819;28;20173;-81
2021/11/05 09:20:05;;;;;;;1.50;1.40;;;;;;;6.35;89.01;96013.69;5054354;28;20692;-80
2021/11/05 09:22:30;;;;;;;1.60;1.50;;;;;;;6.63;88.84;96009.94;5070481;28;20248;-79
2021/11/05 09:24:57;;;;;;;2.47;1.40;;;;;;;6.30;86.88;96023.53;5070147;28;20203;-80
2021/11/05 09:27:22;;;;;;;1.70;1.60;;;;;;;6.47;87.88;96026.53;5070802;28;20191;-79
2021/11/05 09:29:47;;;;;;;1.77;1.57;;;;;;;6.57;87.89;96029.28;5070213;28;20708;-80
2021/11/05 09:32:13;;;;;;;1.90;1.80;;;;;;;6.61;88.03;96035.84;5070599;28;20659;-79
2021/11/05 09:34:38;;;;;;;1.70;1.60;;;;;;;6.61;86.95;96037.59;5086608;28;20214;-81
2021/11/05 09:37:05;;;;;;;2.30;2.10;;;;;;;6.56;87.55;96047.44;5075064;28;20580;-81
2021/11/05 09:39:30;;;;;;;2.87;1.90;;;;;;;6.64;86.73;96042.56;5079939;28;20205;-81
2021/11/05 09:41:57;;;;;;;2.37;2.17;;;;;;;6.63;87.15;96053.81;5053674;28;20177;-80
2021/11/05 09:44:22;;;;;;;2.27;2.00;;;;;;;6.50;86.71;96057.25;5070955;28;20184;-79
2021/11/05 09:46:49;;;;;;;2.03;1.90;;;;;;;6.50;86.38;96066.75;5078808;28;20223;-81
2021/11/05 09:49:15;;;;;;;2.23;1.83;;;;;;;6.55;86.72;96063.88;5070362;28;20193;-82
2021/11/05 09:51:40;;;;;;;2.20;2.00;;;;;;;6.67;86.49;96068.13;5071150;28;20249;-80
2021/11/05 09:54:06;;;;;;;3.97;1.90;;;;;;;6.40;86.15;96070.94;5066682;28;20885;-80
2021/11/05 09:56:32;;;;;;;2.97;2.60;;;;;;;6.59;86.79;96070.44;5053110;28;20581;-79
2021/11/05 09:58:57;;;;;;;2.57;2.33;;;;;;;6.71;86.43;96079.88;5070637;28;20197;-80
2021/11/05 10:01:23;;;;;;;3.43;2.83;;;;;;;6.84;85.85;96080.63;5070112;28;20633;-79
2021/11/05 10:03:48;;;;;;;7.60;5.07;;;;;;;6.90;85.76;96087.94;5052731;28;20196;-79
2021/11/05 10:06:16;;;;;;;4.07;3.10;;;;;;;6.80;84.73;96082.63;5070980;28;20238;-79
2021/11/05 10:08:41;;;;;;;3.10;2.80;;;;;;;6.85;85.24;96089.22;5081743;28;20164;-80
2021/11/05 10:11:24;;;;;;;3.73;3.20;;;;;;;6.85;84.28;96095.19;5090604;28;20271;-82
2021/11/05 10:13:49;;;;;;;3.60;3.20;;;;;;;6.88;84.19;96097.53;5091315;28;20217;-81
2021/11/05 10:16:15;;;;;;;3.90;3.50;;;;;;;6.88;83.33;96107.03;5073238;28;20208;-81
2021/11/05 10:19:18;;;;;;;3.73;3.33;;;;;;;7.10;83.72;96113.13;5086378;28;20226;-79
2021/11/05 10:21:46;;;;;;;3.87;3.27;;;;;;;7.06;83.36;96106.53;5051784;28;20246;-83
2021/11/05 10:24:15;;;;;;;5.03;3.53;;;;;;;6.97;84.13;96104.63;5057979;28;20222;-82
2021/11/05 10:26:41;;;;;;;3.90;3.27;;;;;;;6.96;83.81;96109.91;5054869;28;20189;-82
2021/11/05 10:29:07;;;;;;;4.47;3.27;;;;;;;6.86;84.16;96109.75;5020617;28;20696;-81
2021/11/05 10:31:34;;;;;;;3.40;3.10;;;;;;;6.71;84.21;96106.50;5053999;28;20578;-81
2021/11/05 10:34:00;;;;;;;4.20;3.80;;;;;;;6.66;84.89;96107.78;5036071;28;20174;-82
2021/11/05 10:36:27;;;;;;;4.50;3.67;;;;;;;6.51;85.35;96110.50;5053729;28;20240;-81
2021/11/05 10:39:01;;;;;;;4.37;3.97;;;;;;;6.50;85.67;96120.94;5056815;28;20250;-81
2021/11/05 10:41:29;;;;;;;5.10;4.47;;;;;;;6.45;86.48;96113.53;5036110;28;20185;-81
2021/11/05 10:44:12;;;;;;;4.43;4.03;;;;;;;6.43;85.73;96120.53;5036073;28;20251;-80
2021/11/05 10:46:39;;;;;;;5.83;5.00;;;;;;;6.42;85.78;96124.06;5052084;28;20657;-81
2021/11/05 10:49:07;;;;;;;6.67;5.27;;;;;;;6.39;85.70;96121.72;5018824;28;20236;-81
2021/11/05 10:51:34;;;;;;;5.97;5.27;;;;;;;6.31;86.71;96124.00;5051582;28;20178;-81
2021/11/05 10:54:01;;;;;;;5.53;4.30;;;;;;;6.45;85.49;96126.44;5034166;28;20208;-83
2021/11/05 10:56:30;;;;;;;5.53;4.87;;;;;;;6.58;85.89;96130.72;5065553;28;20209;-81
2021/11/05 10:59:00;;;;;;;6.13;5.00;;;;;;;6.61;85.89;96133.91;5056043;28;20181;-81
2021/11/05 11:01:30;;;;;;;8.07;5.03;;;;;;;6.82;84.91;96134.97;5092685;28;20176;-81
2021/11/05 11:03:57;;;;;;;7.07;4.70;;;;;;;6.77;83.30;96137.03;5075505;28;20180;-80
2021/11/05 11:06:42;;;;;;;6.67;5.27;;;;;;;6.97;83.17;96135.59;5075937;28;20658;-81
2021/11/05 11:09:10;;;;;;;5.77;5.13;;;;;;;7.29;82.38;96138.44;5083892;28;20232;-81
2021/11/05 11:11:43;;;;;;;4.80;4.40;;;;;;;7.16;81.28;96132.53;5055938;28;20169;-80
2021/11/05 11:14:17;;;;;;;4.70;4.30;;;;;;;7.43;81.07;96137.41;5055450;28;20177;-81
2021/11/05 11:17:00;;;;;;;5.93;4.23;;;;;;;7.47;80.29;96135.41;5073435;28;20721;-81
2021/11/05 11:19:34;;;;;;;4.07;3.63;;;;;;;7.54;80.07;96137.44;5073243;28;20189;-81
2021/11/05 11:22:03;;;;;;;6.83;4.83;;;;;;;7.72;79.83;96139.59;5056469;28;20173;-81
2021/11/05 11:24:33;;;;;;;4.20;3.80;;;;;;;7.73;78.38;96136.06;5055278;28;20208;-81
2021/11/05 11:27:00;;;;;;;3.97;3.67;;;;;;;8.20;78.31;96133.22;5056288;28;20178;-81
2021/11/05 11:29:27;;;;;;;4.30;4.00;;;;;;;8.08;78.03;96135.97;5071445;28;20680;-81
2021/11/05 11:31:54;;;;;;;4.67;4.27;;;;;;;8.12;77.52;96137.34;5055562;28;20525;-81
2021/11/05 11:34:20;;;;;;;4.87;4.47;;;;;;;8.18;77.46;96140.28;5072877;28;20618;-81
2021/11/05 11:36:51;;;;;;;4.53;3.90;;;;;;;7.97;77.55;96144.53;5055820;28;20227;-82